createdAt,value
2022-09-28T00:00:49.227Z,11.55
2022-09-28T00:01:51.783Z,11.57
2022-09-28T00:02:57.562Z,11.55
2022-09-28T00:03:59.823Z,11.54
2022-09-28T00:05:02.435Z,11.58
2022-09-28T00:06:08.230Z,11.58
2022-09-28T00:07:09.856Z,11.62
2022-09-28T00:08:11.421Z,11.61
2022-09-28T00:09:13.895Z,11.65
2022-09-28T00:10:16.104Z,11.64
2022-09-28T00:11:18.925Z,11.66
2022-09-28T00:12:21.922Z,11.65
2022-09-28T00:13:23.882Z,11.64
2022-09-28T00:14:26.426Z,11.62
2022-09-28T00:15:28.064Z,11.65
2022-09-28T00:16:31.890Z,11.65
2022-09-28T00:17:33.632Z,11.66
2022-09-28T00:18:36.240Z,11.69
2022-09-28T00:19:40.059Z,11.71
2022-09-28T00:20:41.683Z,11.72
2022-09-28T00:21:43.284Z,11.72
2022-09-28T00:22:44.874Z,11.75
2022-09-28T00:24:05.068Z,11.76
2022-09-28T00:25:07.085Z,11.72
2022-09-28T00:26:08.706Z,11.73
2022-09-28T00:27:10.283Z,11.73
2022-09-28T00:28:11.855Z,11.73
2022-09-28T00:29:19.122Z,11.75
2022-09-28T00:30:20.766Z,11.78
2022-09-28T00:31:23.421Z,11.81
2022-09-28T00:32:25.201Z,11.79
2022-09-28T00:33:26.782Z,11.79
2022-09-28T00:34:36.139Z,11.76
2022-09-28T00:35:37.742Z,11.81
2022-09-28T00:36:39.409Z,11.79
2022-09-28T00:37:40.991Z,11.83
2022-09-28T00:38:42.905Z,11.81
2022-09-28T00:39:44.679Z,11.79
2022-09-28T00:40:46.342Z,11.79
2022-09-28T00:41:48.044Z,11.79
2022-09-28T00:42:49.632Z,11.76
2022-09-28T00:43:51.316Z,11.79
2022-09-28T00:44:53.447Z,11.78
2022-09-28T00:46:03.201Z,11.76
2022-09-28T00:47:28.439Z,11.73
2022-09-28T00:48:33.453Z,11.73
2022-09-28T00:49:37.052Z,11.75
2022-09-28T00:50:38.670Z,11.76
2022-09-28T00:51:40.260Z,11.75
2022-09-28T00:52:58.598Z,11.73
2022-09-28T00:54:00.549Z,11.72
2022-09-28T00:55:02.521Z,11.69
2022-09-28T00:56:12.129Z,11.71
2022-09-28T00:57:14.006Z,11.71
2022-09-28T00:58:24.930Z,11.66
2022-09-28T00:59:26.775Z,11.69
2022-09-28T01:00:28.440Z,11.69
2022-09-28T01:01:30.106Z,11.69
2022-09-28T01:02:31.729Z,11.66
2022-09-28T01:03:33.430Z,11.68
2022-09-28T01:04:34.986Z,11.65
2022-09-28T01:05:37.035Z,11.65
2022-09-28T01:06:38.817Z,11.66
2022-09-28T01:07:40.992Z,11.64
2022-09-28T01:08:44.706Z,11.66
2022-09-28T01:09:46.335Z,11.62
2022-09-28T01:10:48.756Z,11.58
2022-09-28T01:11:50.336Z,11.58
2022-09-28T01:12:51.961Z,11.61
2022-09-28T01:13:54.609Z,11.58
2022-09-28T01:14:56.163Z,11.58
2022-09-28T01:16:16.419Z,11.61
2022-09-28T01:17:22.855Z,11.58
2022-09-28T01:18:36.719Z,11.55
2022-09-28T01:19:56.290Z,11.62
2022-09-28T01:21:03.471Z,11.58
2022-09-28T01:22:23.310Z,11.62
2022-09-28T01:23:58.994Z,11.57
2022-09-28T01:25:38.399Z,11.58
2022-09-28T01:26:46.659Z,11.55
2022-09-28T01:27:51.468Z,11.58
2022-09-28T01:28:56.269Z,11.61
2022-09-28T01:30:07.759Z,11.59
2022-09-28T01:31:15.496Z,11.58
2022-09-28T01:32:22.545Z,11.55
2022-09-28T01:33:26.818Z,11.54
2022-09-28T01:34:31.747Z,11.57
2022-09-28T01:35:40.020Z,11.54
2022-09-28T01:36:43.946Z,11.58
2022-09-28T01:37:57.238Z,11.52
2022-09-28T01:39:10.568Z,11.54
2022-09-28T01:40:12.211Z,11.55
2022-09-28T01:41:13.754Z,11.55
2022-09-28T01:42:27.480Z,11.55
2022-09-28T01:43:29.704Z,11.52
2022-09-28T01:44:31.669Z,11.52
2022-09-28T01:45:43.746Z,11.58
2022-09-28T01:46:49.550Z,11.54
2022-09-28T01:47:51.100Z,11.57
2022-09-28T01:48:55.927Z,11.54
2022-09-28T01:50:04.020Z,11.50
2022-09-28T01:51:08.952Z,11.50
2022-09-28T01:52:24.620Z,11.50
2022-09-28T01:53:36.560Z,11.48
2022-09-28T01:54:53.410Z,11.51
2022-09-28T01:55:57.683Z,11.48
2022-09-28T01:57:02.797Z,11.46
2022-09-28T01:58:41.030Z,11.46
2022-09-28T01:59:46.406Z,11.48
2022-09-28T02:00:49.570Z,11.46
2022-09-28T02:01:56.233Z,11.45
2022-09-28T02:03:07.170Z,11.50
2022-09-28T02:04:12.376Z,11.46
2022-09-28T02:05:18.638Z,11.42
2022-09-28T02:06:38.887Z,11.39
2022-09-28T02:07:46.126Z,11.38
2022-09-28T02:08:51.015Z,11.35
2022-09-28T02:09:58.824Z,11.36
2022-09-28T02:11:08.591Z,11.32
2022-09-28T02:12:13.412Z,11.34
2022-09-28T02:13:20.866Z,11.32
2022-09-28T02:14:22.567Z,11.28
2022-09-28T02:15:30.630Z,11.30
2022-09-28T02:16:46.980Z,11.30
2022-09-28T02:17:48.613Z,11.28
2022-09-28T02:18:50.158Z,11.30
2022-09-28T02:19:51.722Z,11.28
2022-09-28T02:20:59.443Z,11.30
2022-09-28T02:22:29.958Z,11.30
2022-09-28T02:23:31.548Z,11.31
2022-09-28T02:24:39.902Z,11.28
2022-09-28T02:25:45.773Z,11.28
2022-09-28T02:26:47.373Z,11.32
2022-09-28T02:28:00.488Z,11.32
2022-09-28T02:29:02.063Z,11.32
2022-09-28T02:30:06.997Z,11.31
2022-09-28T02:31:08.593Z,11.32
2022-09-28T02:32:10.519Z,11.32
2022-09-28T02:33:24.461Z,11.32
2022-09-28T02:34:26.270Z,11.28
2022-09-28T02:35:27.847Z,11.28
2022-09-28T02:36:29.451Z,11.34
2022-09-28T02:37:31.091Z,11.31
2022-09-28T02:38:32.902Z,11.34
2022-09-28T02:39:34.461Z,11.31
2022-09-28T02:40:37.954Z,11.32
2022-09-28T02:42:00.271Z,11.32
2022-09-28T02:43:24.130Z,11.32
2022-09-28T02:44:49.093Z,11.30
2022-09-28T02:45:57.330Z,11.34
2022-09-28T02:47:19.912Z,11.32
2022-09-28T02:48:44.221Z,11.30
2022-09-28T02:49:51.326Z,11.32
2022-09-28T02:51:18.624Z,11.32
2022-09-28T02:53:01.698Z,11.31
2022-09-28T02:54:30.185Z,11.30
2022-09-28T02:55:53.772Z,11.31
2022-09-28T02:57:16.839Z,11.22
2022-09-28T02:58:25.827Z,11.21
2022-09-28T02:59:54.303Z,11.25
2022-09-28T03:01:18.497Z,11.27
2022-09-28T03:02:28.995Z,11.21
2022-09-28T03:03:50.446Z,11.21
2022-09-28T03:05:16.044Z,11.21
2022-09-28T03:06:23.849Z,11.25
2022-09-28T03:07:29.189Z,11.21
2022-09-28T03:08:35.086Z,11.22
2022-09-28T03:10:01.556Z,11.28
2022-09-28T03:11:20.920Z,11.24
2022-09-28T03:12:23.567Z,11.25
2022-09-28T03:13:25.364Z,11.25
2022-09-28T03:14:26.964Z,11.25
2022-09-28T03:15:30.033Z,11.25
2022-09-28T03:16:32.418Z,11.25
2022-09-28T03:17:34.022Z,11.28
2022-09-28T03:18:35.592Z,11.30
2022-09-28T03:19:37.201Z,11.31
2022-09-28T03:20:38.839Z,11.30
2022-09-28T03:21:40.463Z,11.28
2022-09-28T03:22:42.107Z,11.30
2022-09-28T03:23:43.739Z,11.28
2022-09-28T03:24:45.290Z,11.27
2022-09-28T03:25:46.875Z,11.24
2022-09-28T03:26:48.422Z,11.27
2022-09-28T03:27:50.028Z,11.24
2022-09-28T03:28:51.654Z,11.22
2022-09-28T03:29:53.276Z,11.25
2022-09-28T03:30:55.239Z,11.27
2022-09-28T03:31:56.886Z,11.24
2022-09-28T03:32:59.557Z,11.24
2022-09-28T03:34:01.178Z,11.22
2022-09-28T03:35:02.876Z,11.22
2022-09-28T03:36:04.804Z,11.20
2022-09-28T03:37:06.354Z,11.18
2022-09-28T03:38:07.925Z,11.21
2022-09-28T03:39:09.483Z,11.20
2022-09-28T03:40:11.090Z,11.17
2022-09-28T03:41:12.713Z,11.10
2022-09-28T03:42:14.301Z,11.13
2022-09-28T03:43:15.857Z,11.15
2022-09-28T03:44:17.386Z,11.15
2022-09-28T03:45:19.015Z,11.14
2022-09-28T03:46:20.622Z,11.11
2022-09-28T03:47:22.349Z,11.13
2022-09-28T03:48:32.132Z,11.15
2022-09-28T03:49:34.396Z,11.13
2022-09-28T03:50:36.016Z,11.14
2022-09-28T03:51:37.659Z,11.15
2022-09-28T03:52:39.247Z,11.13
2022-09-28T03:53:40.928Z,11.15
2022-09-28T03:54:46.958Z,11.06
2022-09-28T03:55:52.073Z,11.11
2022-09-28T03:56:53.759Z,11.03
2022-09-28T03:57:56.124Z,11.06
2022-09-28T03:58:57.688Z,11.07
2022-09-28T03:59:59.256Z,11.06
2022-09-28T04:01:05.327Z,11.07
2022-09-28T04:02:07.082Z,11.10
2022-09-28T04:03:09.264Z,11.11
2022-09-28T04:04:13.661Z,11.11
2022-09-28T04:05:15.241Z,11.11
2022-09-28T04:06:17.037Z,11.11
2022-09-28T04:07:18.644Z,11.11
2022-09-28T04:08:20.372Z,11.13
2022-09-28T04:09:21.915Z,11.14
2022-09-28T04:10:26.641Z,11.06
2022-09-28T04:11:32.216Z,11.11
2022-09-28T04:12:46.006Z,11.11
2022-09-28T04:13:50.883Z,11.08
2022-09-28T04:14:52.453Z,11.10
2022-09-28T04:15:55.040Z,11.08
2022-09-28T04:16:56.627Z,11.08
2022-09-28T04:17:58.242Z,11.04
2022-09-28T04:18:59.863Z,11.06
2022-09-28T04:20:03.275Z,11.01
2022-09-28T04:21:10.925Z,11.04
2022-09-28T04:22:12.507Z,10.99
2022-09-28T04:23:15.313Z,11.00
2022-09-28T04:24:17.185Z,10.99
2022-09-28T04:25:18.749Z,10.91
2022-09-28T04:26:24.268Z,10.90
2022-09-28T04:27:44.298Z,10.91
2022-09-28T04:29:06.750Z,10.87
2022-09-28T04:30:09.322Z,10.84
2022-09-28T04:31:16.997Z,10.89
2022-09-28T04:32:18.595Z,10.80
2022-09-28T04:33:20.193Z,10.77
2022-09-28T04:34:22.224Z,10.74
2022-09-28T04:35:23.910Z,10.70
2022-09-28T04:36:25.469Z,10.70
2022-09-28T04:37:27.071Z,10.71
2022-09-28T04:38:48.740Z,10.71
2022-09-28T04:39:50.327Z,10.67
2022-09-28T04:40:52.022Z,10.67
2022-09-28T04:41:53.644Z,10.64
2022-09-28T04:42:56.098Z,10.60
2022-09-28T04:43:57.780Z,10.61
2022-09-28T04:45:01.041Z,10.57
2022-09-28T04:46:02.862Z,10.57
2022-09-28T04:47:05.402Z,10.55
2022-09-28T04:48:07.924Z,10.52
2022-09-28T04:49:10.539Z,10.52
2022-09-28T04:50:12.210Z,10.50
2022-09-28T04:51:13.857Z,10.50
2022-09-28T04:52:18.285Z,10.52
2022-09-28T04:53:20.395Z,10.45
2022-09-28T04:54:22.017Z,10.45
2022-09-28T04:55:23.650Z,10.45
2022-09-28T04:56:25.208Z,10.43
2022-09-28T04:57:26.753Z,10.38
2022-09-28T04:58:28.364Z,10.38
2022-09-28T04:59:29.972Z,10.38
2022-09-28T05:00:35.197Z,10.40
2022-09-28T05:01:37.090Z,10.40
2022-09-28T05:02:39.132Z,10.38
2022-09-28T05:03:41.175Z,10.38
2022-09-28T05:04:42.911Z,10.35
2022-09-28T05:05:47.457Z,10.35
2022-09-28T05:06:49.296Z,10.35
2022-09-28T05:07:50.864Z,10.35
2022-09-28T05:08:52.579Z,10.35
2022-09-28T05:09:55.957Z,10.30
2022-09-28T05:11:01.915Z,10.25
2022-09-28T05:12:03.551Z,10.18
2022-09-28T05:13:05.116Z,10.15
2022-09-28T05:14:06.661Z,10.03
2022-09-28T05:15:08.475Z,10.02
2022-09-28T05:16:10.619Z,9.99
2022-09-28T05:17:12.268Z,9.98
2022-09-28T05:18:14.218Z,9.92
2022-09-28T05:19:15.927Z,9.95
2022-09-28T05:20:17.596Z,9.94
2022-09-28T05:21:20.144Z,9.92
2022-09-28T05:22:21.781Z,9.95
2022-09-28T05:23:23.345Z,9.94
2022-09-28T05:24:24.891Z,9.94
2022-09-28T05:25:26.526Z,9.88
2022-09-28T05:26:28.074Z,9.85
2022-09-28T05:27:29.743Z,9.87
2022-09-28T05:28:31.750Z,9.95
2022-09-28T05:29:33.328Z,9.98
2022-09-28T05:30:35.899Z,10.01
2022-09-28T05:31:37.604Z,10.09
2022-09-28T05:32:42.898Z,10.32
2022-09-28T05:33:44.648Z,10.57
2022-09-28T05:34:46.275Z,10.77
2022-09-28T05:35:51.100Z,10.96
2022-09-28T05:36:56.153Z,11.21
2022-09-28T05:37:58.812Z,11.48
2022-09-28T05:39:01.398Z,11.82
2022-09-28T05:40:03.895Z,12.19
2022-09-28T05:41:06.829Z,12.60
2022-09-28T05:42:08.659Z,13.14
2022-09-28T05:43:10.257Z,13.71
2022-09-28T05:44:11.839Z,14.24
2022-09-28T05:45:13.416Z,14.71
2022-09-28T05:46:15.104Z,14.91
2022-09-28T05:47:16.687Z,15.16
2022-09-28T05:48:18.247Z,15.39
2022-09-28T05:49:19.827Z,15.35
2022-09-28T05:50:21.418Z,15.43
2022-09-28T05:51:24.772Z,15.76
2022-09-28T05:52:26.316Z,15.93
2022-09-28T05:53:27.858Z,15.95
2022-09-28T05:54:29.417Z,15.91
2022-09-28T05:55:31.282Z,15.71
2022-09-28T05:56:33.065Z,15.63
2022-09-28T05:57:34.703Z,15.46
2022-09-28T05:58:36.260Z,15.20
2022-09-28T05:59:37.851Z,15.10
2022-09-28T06:00:39.483Z,14.71
2022-09-28T06:01:41.111Z,14.60
2022-09-28T06:02:43.184Z,14.38
2022-09-28T06:03:44.841Z,14.42
2022-09-28T06:04:48.340Z,14.30
2022-09-28T06:05:49.915Z,14.25
2022-09-28T06:06:51.574Z,14.13
2022-09-28T06:07:55.755Z,13.94
2022-09-28T06:08:57.331Z,13.93
2022-09-28T06:10:00.010Z,13.79
2022-09-28T06:11:02.030Z,13.79
2022-09-28T06:12:03.595Z,13.77
2022-09-28T06:13:05.425Z,13.69
2022-09-28T06:14:07.682Z,13.76
2022-09-28T06:15:09.745Z,13.84
2022-09-28T06:16:14.968Z,13.86
2022-09-28T06:17:16.738Z,13.83
2022-09-28T06:18:18.386Z,13.81
2022-09-28T06:19:19.976Z,13.87
2022-09-28T06:20:21.560Z,13.89
2022-09-28T06:21:23.206Z,13.87
2022-09-28T06:22:24.794Z,13.86
2022-09-28T06:23:26.383Z,13.89
2022-09-28T06:24:27.959Z,13.94
2022-09-28T06:25:29.691Z,13.87
2022-09-28T06:26:31.336Z,13.91
2022-09-28T06:27:34.288Z,13.97
2022-09-28T06:28:35.836Z,13.99
2022-09-28T06:29:37.446Z,14.00
2022-09-28T06:30:39.299Z,14.04
2022-09-28T06:31:40.879Z,14.07
2022-09-28T06:32:42.477Z,14.09
2022-09-28T06:33:44.026Z,14.07
2022-09-28T06:34:45.653Z,14.09
2022-09-28T06:35:48.000Z,14.07
2022-09-28T06:36:49.584Z,14.09
2022-09-28T06:37:51.586Z,14.13
2022-09-28T06:38:53.159Z,14.13
2022-09-28T06:39:54.878Z,14.18
2022-09-28T06:40:59.661Z,14.17
2022-09-28T06:42:03.367Z,14.31
2022-09-28T06:43:14.801Z,14.30
2022-09-28T06:44:16.463Z,14.28
2022-09-28T06:45:20.199Z,14.32
2022-09-28T06:46:21.917Z,14.32
2022-09-28T06:47:23.604Z,14.25
2022-09-28T06:48:25.240Z,14.24
2022-09-28T06:49:30.365Z,14.27
2022-09-28T06:50:34.138Z,14.34
2022-09-28T06:51:36.763Z,14.37
2022-09-28T06:52:38.666Z,14.42
2022-09-28T06:53:40.235Z,14.45
2022-09-28T06:54:41.855Z,14.51
2022-09-28T06:55:46.220Z,14.57
2022-09-28T06:56:47.802Z,14.58
2022-09-28T06:57:59.930Z,14.62
2022-09-28T06:59:01.536Z,14.57
2022-09-28T07:00:03.290Z,14.61
2022-09-28T07:01:05.791Z,14.61
2022-09-28T07:02:10.934Z,14.65
2022-09-28T07:03:14.937Z,14.60
2022-09-28T07:04:16.542Z,14.67
2022-09-28T07:05:19.309Z,14.76
2022-09-28T07:06:24.124Z,14.79
2022-09-28T07:07:26.131Z,14.78
2022-09-28T07:08:28.849Z,14.82
2022-09-28T07:09:33.438Z,14.83
2022-09-28T07:10:36.304Z,14.88
2022-09-28T07:11:39.691Z,14.93
2022-09-28T07:12:41.817Z,15.00
2022-09-28T07:13:50.879Z,15.02
2022-09-28T07:14:57.428Z,15.07
2022-09-28T07:16:01.972Z,15.12
2022-09-28T07:17:13.289Z,15.09
2022-09-28T07:18:17.905Z,15.05
2022-09-28T07:19:19.542Z,14.98
2022-09-28T07:20:21.274Z,15.00
2022-09-28T07:21:29.846Z,14.99
2022-09-28T07:22:42.405Z,15.00
2022-09-28T07:23:52.319Z,15.05
2022-09-28T07:24:55.542Z,15.03
2022-09-28T07:25:58.336Z,15.03
2022-09-28T07:26:59.908Z,15.02
2022-09-28T07:28:03.772Z,15.03
2022-09-28T07:29:05.382Z,15.09
2022-09-28T07:30:07.479Z,15.10
2022-09-28T07:31:09.783Z,15.10
2022-09-28T07:32:11.390Z,15.13
2022-09-28T07:33:14.664Z,15.13
2022-09-28T07:34:18.623Z,15.12
2022-09-28T07:35:20.336Z,15.09
2022-09-28T07:36:22.888Z,15.10
2022-09-28T07:37:26.680Z,15.07
2022-09-28T07:38:28.290Z,15.10
2022-09-28T07:39:29.869Z,15.07
2022-09-28T07:40:50.306Z,15.12
2022-09-28T07:41:56.768Z,15.15
2022-09-28T07:43:07.412Z,15.19
2022-09-28T07:44:08.977Z,15.20
2022-09-28T07:45:11.485Z,15.20
2022-09-28T07:46:13.263Z,15.18
2022-09-28T07:47:14.915Z,15.20
2022-09-28T07:48:17.102Z,15.18
2022-09-28T07:49:19.426Z,15.12
2022-09-28T07:50:21.573Z,15.12
2022-09-28T07:51:23.218Z,15.16
2022-09-28T07:52:26.238Z,15.15
2022-09-28T07:53:28.584Z,15.15
2022-09-28T07:54:31.371Z,15.18
2022-09-28T07:55:33.070Z,15.13
2022-09-28T07:56:34.960Z,15.10
2022-09-28T07:57:36.581Z,15.06
2022-09-28T07:58:38.920Z,15.07
2022-09-28T07:59:40.467Z,15.06
2022-09-28T08:00:42.012Z,15.10
2022-09-28T08:01:43.744Z,15.13
2022-09-28T08:02:45.444Z,15.10
2022-09-28T08:03:48.089Z,15.15
2022-09-28T08:04:50.491Z,15.16
2022-09-28T08:05:52.065Z,15.15
2022-09-28T08:06:53.811Z,15.18
2022-09-28T08:07:57.806Z,15.19
2022-09-28T08:09:00.024Z,15.13
2022-09-28T08:10:01.609Z,15.09
2022-09-28T08:11:03.305Z,15.10
2022-09-28T08:12:05.130Z,15.09
2022-09-28T08:13:08.690Z,15.12
2022-09-28T08:14:11.156Z,15.13
2022-09-28T08:15:12.738Z,15.13
2022-09-28T08:16:14.339Z,15.15
2022-09-28T08:17:16.054Z,15.16
2022-09-28T08:18:17.959Z,15.22
2022-09-28T08:19:19.667Z,15.22
2022-09-28T08:20:39.810Z,15.23
2022-09-28T08:21:47.438Z,15.27
2022-09-28T08:22:49.042Z,15.35
2022-09-28T08:23:50.741Z,15.37
2022-09-28T08:24:52.327Z,15.39
2022-09-28T08:25:56.435Z,15.46
2022-09-28T08:26:59.039Z,15.51
2022-09-28T08:28:00.853Z,15.50
2022-09-28T08:29:03.240Z,15.56
2022-09-28T08:30:05.330Z,15.60
2022-09-28T08:31:07.514Z,15.63
2022-09-28T08:32:09.772Z,15.68
2022-09-28T08:33:12.568Z,15.71
2022-09-28T08:34:14.235Z,15.76
2022-09-28T08:35:15.893Z,15.78
2022-09-28T08:36:17.479Z,15.76
2022-09-28T08:37:19.352Z,15.81
2022-09-28T08:38:20.980Z,15.87
2022-09-28T08:39:22.559Z,15.87
2022-09-28T08:40:25.311Z,15.87
2022-09-28T08:41:48.559Z,15.91
2022-09-28T08:42:52.181Z,15.97
2022-09-28T08:43:59.911Z,16.00
2022-09-28T08:45:28.291Z,16.05
2022-09-28T08:46:48.075Z,16.07
2022-09-28T08:48:10.548Z,16.05
2022-09-28T08:49:30.578Z,16.05
2022-09-28T08:50:32.705Z,16.11
2022-09-28T08:51:39.182Z,16.12
2022-09-28T08:52:40.987Z,16.12
2022-09-28T08:53:43.548Z,16.17
2022-09-28T08:54:50.499Z,16.21
2022-09-28T08:55:52.052Z,16.26
2022-09-28T08:57:18.978Z,16.30
2022-09-28T08:58:23.437Z,16.32
2022-09-28T08:59:27.073Z,16.33
2022-09-28T09:00:34.370Z,16.28
2022-09-28T09:01:38.777Z,16.28
2022-09-28T09:02:42.379Z,16.30
2022-09-28T09:03:46.957Z,16.28
2022-09-28T09:04:48.934Z,16.30
2022-09-28T09:06:07.460Z,16.33
2022-09-28T09:07:15.091Z,16.44
2022-09-28T09:08:58.920Z,16.49
2022-09-28T09:10:24.731Z,16.53
2022-09-28T09:12:01.739Z,16.49
2022-09-28T09:13:11.397Z,16.48
2022-09-28T09:14:45.834Z,16.49
2022-09-28T09:16:16.630Z,16.52
2022-09-28T09:17:27.149Z,16.45
2022-09-28T09:18:35.849Z,16.45
2022-09-28T09:19:53.542Z,16.47
2022-09-28T09:20:59.305Z,16.41
2022-09-28T09:22:10.157Z,16.35
2022-09-28T09:23:28.514Z,16.32
2022-09-28T09:24:35.760Z,16.30
2022-09-28T09:25:47.330Z,16.32
2022-09-28T09:26:48.981Z,16.38
2022-09-28T09:28:21.480Z,16.44
2022-09-28T09:29:50.199Z,16.48
2022-09-28T09:31:09.302Z,16.58
2022-09-28T09:32:26.178Z,16.63
2022-09-28T09:33:34.003Z,16.72
2022-09-28T09:34:50.820Z,16.79
2022-09-28T09:36:07.852Z,16.76
2022-09-28T09:37:45.966Z,16.84
2022-09-28T09:38:58.165Z,16.91
2022-09-28T09:40:26.308Z,17.04
2022-09-28T09:41:43.862Z,17.09
2022-09-28T09:42:54.733Z,17.13
2022-09-28T09:44:31.312Z,17.07
2022-09-28T09:45:51.702Z,17.09
2022-09-28T09:47:00.607Z,17.07
2022-09-28T09:48:30.132Z,17.10
2022-09-28T09:49:36.642Z,17.10
2022-09-28T09:51:03.620Z,17.04
2022-09-28T09:52:11.643Z,16.91
2022-09-28T09:53:17.551Z,16.84
2022-09-28T09:54:23.438Z,16.77
2022-09-28T09:55:45.206Z,16.60
2022-09-28T09:56:54.871Z,16.53
2022-09-28T09:58:10.363Z,16.51
2022-09-28T09:59:19.004Z,16.47
2022-09-28T10:00:20.775Z,16.44
2022-09-28T10:01:34.856Z,16.39
2022-09-28T10:02:36.567Z,16.42
2022-09-28T10:03:41.397Z,16.41
2022-09-28T10:04:44.650Z,16.45
2022-09-28T10:05:47.930Z,16.48
2022-09-28T10:06:50.493Z,16.45
2022-09-28T10:08:05.505Z,16.45
2022-09-28T10:09:13.893Z,16.45
2022-09-28T10:10:21.622Z,16.45
2022-09-28T10:11:27.262Z,16.35
2022-09-28T10:12:29.009Z,16.26
2022-09-28T10:13:32.943Z,16.25
2022-09-28T10:14:34.816Z,16.21
2022-09-28T10:15:36.502Z,16.18
2022-09-28T10:16:38.246Z,16.19
2022-09-28T10:17:39.924Z,16.21
2022-09-28T10:18:41.501Z,16.21
2022-09-28T10:19:43.158Z,16.28
2022-09-28T10:20:47.614Z,16.32
2022-09-28T10:21:52.992Z,16.41
2022-09-28T10:22:56.638Z,16.49
2022-09-28T10:24:00.499Z,16.56
2022-09-28T10:25:02.138Z,16.60
2022-09-28T10:26:05.432Z,16.65
2022-09-28T10:27:18.211Z,16.70
2022-09-28T10:28:23.885Z,16.76
2022-09-28T10:29:26.253Z,16.82
2022-09-28T10:30:28.478Z,16.84
2022-09-28T10:31:39.966Z,16.76
2022-09-28T10:32:46.147Z,16.76
2022-09-28T10:33:47.791Z,16.73
2022-09-28T10:34:51.126Z,16.75
2022-09-28T10:35:52.854Z,16.73
2022-09-28T10:37:05.491Z,16.77
2022-09-28T10:38:17.192Z,16.76
2022-09-28T10:39:31.236Z,16.73
2022-09-28T10:40:54.384Z,16.72
2022-09-28T10:41:56.159Z,16.70
2022-09-28T10:43:05.581Z,16.76
2022-09-28T10:44:12.956Z,16.73
2022-09-28T10:45:22.312Z,16.76
2022-09-28T10:46:24.330Z,16.75
2022-09-28T10:47:26.657Z,16.79
2022-09-28T10:48:28.609Z,16.77
2022-09-28T10:49:42.036Z,16.80
2022-09-28T10:51:04.820Z,16.75
2022-09-28T10:52:29.554Z,16.73
2022-09-28T10:53:31.202Z,16.76
2022-09-28T10:54:32.837Z,16.80
2022-09-28T10:55:36.957Z,16.79
2022-09-28T10:56:38.700Z,16.84
2022-09-28T10:57:40.878Z,16.94
2022-09-28T10:58:43.061Z,16.99
2022-09-28T10:59:46.769Z,17.03
2022-09-28T11:00:48.354Z,17.04
2022-09-28T11:02:01.177Z,17.07
2022-09-28T11:03:02.820Z,17.07
2022-09-28T11:04:06.221Z,17.14
2022-09-28T11:05:08.083Z,17.23
2022-09-28T11:06:09.649Z,17.24
2022-09-28T11:07:20.074Z,17.30
2022-09-28T11:08:31.909Z,17.27
2022-09-28T11:09:34.856Z,17.34
2022-09-28T11:10:37.309Z,17.38
2022-09-28T11:11:41.804Z,17.40
2022-09-28T11:12:43.552Z,17.45
2022-09-28T11:13:49.062Z,17.45
2022-09-28T11:14:56.555Z,17.50
2022-09-28T11:15:58.174Z,17.47
2022-09-28T11:17:32.585Z,17.54
2022-09-28T11:18:34.528Z,17.48
2022-09-28T11:19:36.249Z,17.43
2022-09-28T11:20:39.106Z,17.37
2022-09-28T11:21:43.013Z,17.34
2022-09-28T11:22:46.464Z,17.24
2022-09-28T11:24:06.025Z,17.19
2022-09-28T11:25:16.623Z,17.17
2022-09-28T11:26:19.017Z,17.17
2022-09-28T11:27:25.436Z,17.11
2022-09-28T11:28:31.662Z,17.03
2022-09-28T11:29:38.334Z,17.04
2022-09-28T11:30:45.668Z,17.07
2022-09-28T11:31:47.307Z,17.16
2022-09-28T11:32:48.865Z,17.21
2022-09-28T11:33:50.675Z,17.28
2022-09-28T11:34:59.673Z,17.37
2022-09-28T11:36:13.675Z,17.44
2022-09-28T11:37:33.734Z,17.50
2022-09-28T11:39:01.591Z,17.52
2022-09-28T11:40:37.274Z,17.51
2022-09-28T11:41:41.683Z,17.47
2022-09-28T11:43:01.746Z,17.40
2022-09-28T11:44:22.503Z,17.43
2022-09-28T11:45:41.043Z,17.50
2022-09-28T11:46:48.162Z,17.55
2022-09-28T11:47:53.423Z,17.55
2022-09-28T11:48:56.729Z,17.55
2022-09-28T11:50:24.819Z,17.61
2022-09-28T11:51:29.493Z,17.57
2022-09-28T11:52:41.448Z,17.55
2022-09-28T11:54:14.383Z,17.58
2022-09-28T11:55:22.122Z,17.60
2022-09-28T11:56:29.638Z,17.58
2022-09-28T11:57:35.459Z,17.55
2022-09-28T11:58:42.432Z,17.54
2022-09-28T11:59:55.643Z,17.50
2022-09-28T12:01:10.248Z,17.43
2022-09-28T12:02:52.320Z,17.45
2022-09-28T12:03:57.515Z,17.43
2022-09-28T12:05:21.322Z,17.45
2022-09-28T12:06:26.378Z,17.54
2022-09-28T12:07:49.511Z,17.60
2022-09-28T12:08:56.964Z,17.65
2022-09-28T12:10:10.280Z,17.67
2022-09-28T12:11:24.157Z,17.67
2022-09-28T12:12:35.349Z,17.68
2022-09-28T12:13:42.539Z,17.71
2022-09-28T12:14:44.116Z,17.78
2022-09-28T12:17:35.974Z,17.72
2022-09-28T12:18:38.908Z,17.72
2022-09-28T12:19:45.109Z,17.68
2022-09-28T12:21:07.659Z,17.71
2022-09-28T12:22:13.822Z,17.71
2022-09-28T12:23:24.376Z,17.74
2022-09-28T12:24:42.715Z,17.68
2022-09-28T12:25:46.998Z,17.68
2022-09-28T12:27:05.075Z,17.67
2022-09-28T12:28:08.193Z,17.58
2022-09-28T12:29:18.833Z,17.48
2022-09-28T12:30:21.655Z,17.37
2022-09-28T12:31:35.827Z,17.33
2022-09-28T12:32:49.130Z,17.34
2022-09-28T12:33:51.395Z,17.37
2022-09-28T12:34:52.960Z,17.44
2022-09-28T12:36:09.646Z,17.45
2022-09-28T12:37:35.996Z,17.43
2022-09-28T12:38:40.463Z,17.44
2022-09-28T12:39:56.954Z,17.43
2022-09-28T12:41:17.887Z,17.37
2022-09-28T12:42:53.096Z,17.28
2022-09-28T12:44:06.534Z,17.28
2022-09-28T12:45:20.048Z,17.28
2022-09-28T12:46:56.051Z,17.37
2022-09-28T12:48:26.290Z,17.47
2022-09-28T12:51:34.743Z,17.68
2022-09-28T12:53:48.303Z,17.78
2022-09-28T12:54:59.931Z,17.82
2022-09-28T12:56:06.346Z,17.85
2022-09-28T12:57:32.428Z,17.81
2022-09-28T12:59:00.047Z,17.81
2022-09-28T13:00:12.255Z,17.77
2022-09-28T13:01:21.222Z,17.74
2022-09-28T13:02:36.945Z,17.68
2022-09-28T13:04:18.697Z,17.58
2022-09-28T13:05:35.294Z,17.55
2022-09-28T13:07:05.524Z,17.60
2022-09-28T13:08:16.933Z,17.57
2022-09-28T13:09:25.867Z,17.47
2022-09-28T13:10:41.142Z,17.48
2022-09-28T13:11:42.805Z,17.43
2022-09-28T13:12:52.622Z,17.44
2022-09-28T13:14:32.771Z,17.41
2022-09-28T13:16:04.376Z,17.40
2022-09-28T13:17:29.468Z,17.37
2022-09-28T13:18:44.861Z,17.35
2022-09-28T13:19:51.377Z,17.34
2022-09-28T13:21:05.850Z,17.37
2022-09-28T13:22:38.956Z,17.28
2022-09-28T13:23:43.962Z,17.23
2022-09-28T13:24:45.530Z,17.17
2022-09-28T13:26:11.055Z,17.09
2022-09-28T13:27:19.542Z,17.11
2022-09-28T13:28:26.223Z,17.16
2022-09-28T13:29:28.899Z,17.19
2022-09-28T13:30:31.561Z,17.21
2022-09-28T13:31:35.945Z,17.31
2022-09-28T13:32:40.255Z,17.34
2022-09-28T13:33:43.966Z,17.38
2022-09-28T13:34:48.013Z,17.38
2022-09-28T13:35:49.801Z,17.37
2022-09-28T13:37:16.901Z,17.34
2022-09-28T13:38:18.475Z,17.28
2022-09-28T13:39:48.795Z,17.23
2022-09-28T13:41:06.096Z,17.19
2022-09-28T13:42:08.223Z,17.16
2022-09-28T13:43:28.047Z,17.20
2022-09-28T13:44:54.193Z,17.14
2022-09-28T13:45:56.867Z,17.14
2022-09-28T13:47:21.011Z,17.13
2022-09-28T13:48:25.362Z,17.11
2022-09-28T13:50:00.508Z,17.14
2022-09-28T13:51:09.748Z,17.14
2022-09-28T13:52:57.152Z,17.17
2022-09-28T13:54:20.512Z,17.21
2022-09-28T13:55:41.109Z,17.21
2022-09-28T13:56:57.810Z,17.24
2022-09-28T13:58:04.501Z,17.26
2022-09-28T13:59:30.576Z,17.28
2022-09-28T14:00:38.545Z,17.33
2022-09-28T14:01:50.385Z,17.30
2022-09-28T14:02:56.512Z,17.28
2022-09-28T14:04:19.147Z,17.33
2022-09-28T14:05:25.076Z,17.30
2022-09-28T14:06:28.373Z,17.26
2022-09-28T14:07:35.876Z,17.27
2022-09-28T14:08:45.315Z,17.28
2022-09-28T14:09:47.895Z,17.27
2022-09-28T14:10:52.540Z,17.28
2022-09-28T14:12:01.510Z,17.24
2022-09-28T14:13:06.530Z,17.17
2022-09-28T14:14:14.153Z,17.14
2022-09-28T14:15:37.637Z,17.09
2022-09-28T14:16:42.393Z,17.09
2022-09-28T14:17:43.878Z,17.09
2022-09-28T14:19:01.848Z,17.07
2022-09-28T14:20:11.294Z,17.03
2022-09-28T14:21:21.602Z,17.02
2022-09-28T14:22:45.015Z,17.02
2022-09-28T14:24:05.757Z,17.00
2022-09-28T14:25:32.583Z,17.00
2022-09-28T14:26:41.961Z,17.00
2022-09-28T14:28:01.720Z,17.00
2022-09-28T14:29:05.225Z,16.99
2022-09-28T14:30:11.330Z,16.94
2022-09-28T14:31:22.609Z,16.91
2022-09-28T14:32:24.908Z,16.91
2022-09-28T14:33:32.454Z,16.86